sensor_id;sensor_type;location;lat;lon;timestamp;P1;durP1;ratioP1;P2;durP2;ratioP2
70840;SDS011;58465;51.534;9.934;2022-12-07T00:01:57;13.70;;;7.90;;
70840;SDS011;58465;51.534;9.934;2022-12-07T00:04:23;13.85;;;7.90;;
70840;SDS011;58465;51.534;9.934;2022-12-07T00:06:52;12.25;;;7.03;;
70840;SDS011;58465;51.534;9.934;2022-12-07T00:09:18;12.38;;;7.30;;
70840;SDS011;58465;51.534;9.934;2022-12-07T00:11:44;14.40;;;8.10;;
70840;SDS011;58465;51.534;9.934;2022-12-07T00:14:13;12.75;;;6.97;;
70840;SDS011;58465;51.534;9.934;2022-12-07T00:16:39;15.52;;;7.63;;
70840;SDS011;58465;51.534;9.934;2022-12-07T00:19:05;13.15;;;7.20;;
70840;SDS011;58465;51.534;9.934;2022-12-07T00:21:31;12.73;;;7.32;;
70840;SDS011;58465;51.534;9.934;2022-12-07T00:23:58;12.18;;;7.15;;
70840;SDS011;58465;51.534;9.934;2022-12-07T00:26:24;13.52;;;7.90;;
70840;SDS011;58465;51.534;9.934;2022-12-07T00:28:55;12.88;;;7.32;;
70840;SDS011;58465;51.534;9.934;2022-12-07T00:31:23;14.13;;;7.35;;
70840;SDS011;58465;51.534;9.934;2022-12-07T00:33:50;16.90;;;8.00;;
70840;SDS011;58465;51.534;9.934;2022-12-07T00:36:17;18.33;;;8.38;;
70840;SDS011;58465;51.534;9.934;2022-12-07T00:38:44;17.77;;;9.38;;
70840;SDS011;58465;51.534;9.934;2022-12-07T00:41:10;16.65;;;10.13;;
70840;SDS011;58465;51.534;9.934;2022-12-07T00:43:46;19.08;;;10.15;;
70840;SDS011;58465;51.534;9.934;2022-12-07T00:46:13;19.08;;;8.80;;
70840;SDS011;58465;51.534;9.934;2022-12-07T00:48:39;21.60;;;10.60;;
70840;SDS011;58465;51.534;9.934;2022-12-07T00:51:05;15.80;;;8.73;;
70840;SDS011;58465;51.534;9.934;2022-12-07T00:53:31;19.17;;;9.52;;
70840;SDS011;58465;51.534;9.934;2022-12-07T00:56:04;18.38;;;9.80;;
70840;SDS011;58465;51.534;9.934;2022-12-07T00:58:30;15.23;;;7.88;;
70840;SDS011;58465;51.534;9.934;2022-12-07T01:00:55;12.88;;;7.38;;
70840;SDS011;58465;51.534;9.934;2022-12-07T01:03:25;12.95;;;7.18;;
70840;SDS011;58465;51.534;9.934;2022-12-07T01:05:51;13.45;;;7.82;;
70840;SDS011;58465;51.534;9.934;2022-12-07T01:08:18;13.52;;;7.55;;
70840;SDS011;58465;51.534;9.934;2022-12-07T01:10:43;12.68;;;7.68;;
70840;SDS011;58465;51.534;9.934;2022-12-07T01:13:09;14.25;;;7.90;;
70840;SDS011;58465;51.534;9.934;2022-12-07T01:15:34;16.13;;;7.97;;
70840;SDS011;58465;51.534;9.934;2022-12-07T01:18:04;15.90;;;7.45;;
70840;SDS011;58465;51.534;9.934;2022-12-07T01:20:29;12.40;;;8.05;;
70840;SDS011;58465;51.534;9.934;2022-12-07T01:22:54;15.60;;;7.97;;
70840;SDS011;58465;51.534;9.934;2022-12-07T01:25:20;25.55;;;13.13;;
70840;SDS011;58465;51.534;9.934;2022-12-07T01:27:45;23.27;;;11.50;;
70840;SDS011;58465;51.534;9.934;2022-12-07T01:30:10;29.08;;;12.27;;
70840;SDS011;58465;51.534;9.934;2022-12-07T01:32:36;18.73;;;9.63;;
70840;SDS011;58465;51.534;9.934;2022-12-07T01:35:02;17.23;;;9.50;;
70840;SDS011;58465;51.534;9.934;2022-12-07T01:37:27;21.27;;;10.98;;
70840;SDS011;58465;51.534;9.934;2022-12-07T01:39:52;24.10;;;11.32;;
70840;SDS011;58465;51.534;9.934;2022-12-07T01:42:18;23.60;;;10.68;;
70840;SDS011;58465;51.534;9.934;2022-12-07T01:47:44;20.33;;;10.38;;
70840;SDS011;58465;51.534;9.934;2022-12-07T01:50:21;17.33;;;9.25;;
70840;SDS011;58465;51.534;9.934;2022-12-07T01:52:51;16.77;;;8.60;;
70840;SDS011;58465;51.534;9.934;2022-12-07T01:55:18;14.32;;;8.50;;
70840;SDS011;58465;51.534;9.934;2022-12-07T01:57:45;14.88;;;8.02;;
70840;SDS011;58465;51.534;9.934;2022-12-07T02:00:14;15.23;;;7.95;;
70840;SDS011;58465;51.534;9.934;2022-12-07T02:02:45;19.15;;;8.82;;
70840;SDS011;58465;51.534;9.934;2022-12-07T02:05:14;17.90;;;8.60;;
70840;SDS011;58465;51.534;9.934;2022-12-07T02:07:41;15.32;;;7.82;;
70840;SDS011;58465;51.534;9.934;2022-12-07T02:12:43;16.55;;;7.45;;
70840;SDS011;58465;51.534;9.934;2022-12-07T02:15:11;14.68;;;7.80;;
70840;SDS011;58465;51.534;9.934;2022-12-07T02:17:49;15.73;;;8.38;;
70840;SDS011;58465;51.534;9.934;2022-12-07T02:20:28;12.95;;;7.75;;
70840;SDS011;58465;51.534;9.934;2022-12-07T02:26:07;14.38;;;7.28;;
70840;SDS011;58465;51.534;9.934;2022-12-07T02:31:44;12.35;;;6.45;;
70840;SDS011;58465;51.534;9.934;2022-12-07T02:34:37;13.95;;;7.10;;
70840;SDS011;58465;51.534;9.934;2022-12-07T02:37:09;12.93;;;7.63;;
70840;SDS011;58465;51.534;9.934;2022-12-07T02:39:44;12.43;;;6.72;;
70840;SDS011;58465;51.534;9.934;2022-12-07T02:42:20;12.43;;;7.00;;
70840;SDS011;58465;51.534;9.934;2022-12-07T02:44:51;13.93;;;7.72;;
70840;SDS011;58465;51.534;9.934;2022-12-07T02:47:17;13.85;;;6.95;;
70840;SDS011;58465;51.534;9.934;2022-12-07T02:49:45;12.90;;;7.60;;
70840;SDS011;58465;51.534;9.934;2022-12-07T02:52:11;13.45;;;7.78;;
70840;SDS011;58465;51.534;9.934;2022-12-07T02:54:36;13.80;;;7.18;;
70840;SDS011;58465;51.534;9.934;2022-12-07T02:59:35;13.60;;;7.50;;
70840;SDS011;58465;51.534;9.934;2022-12-07T03:13:22;11.25;;;6.57;;
70840;SDS011;58465;51.534;9.934;2022-12-07T03:19:08;12.95;;;7.00;;
70840;SDS011;58465;51.534;9.934;2022-12-07T03:21:44;12.70;;;7.15;;
70840;SDS011;58465;51.534;9.934;2022-12-07T03:24:18;12.43;;;6.68;;
70840;SDS011;58465;51.534;9.934;2022-12-07T03:26:47;14.88;;;8.07;;
70840;SDS011;58465;51.534;9.934;2022-12-07T03:29:31;13.50;;;7.70;;
70840;SDS011;58465;51.534;9.934;2022-12-07T03:32:13;13.77;;;7.63;;
70840;SDS011;58465;51.534;9.934;2022-12-07T03:34:44;14.85;;;8.32;;
70840;SDS011;58465;51.534;9.934;2022-12-07T03:42:54;15.05;;;8.35;;
70840;SDS011;58465;51.534;9.934;2022-12-07T03:45:22;14.15;;;8.07;;
70840;SDS011;58465;51.534;9.934;2022-12-07T03:48:02;17.13;;;8.75;;
70840;SDS011;58465;51.534;9.934;2022-12-07T03:50:38;15.57;;;8.25;;
70840;SDS011;58465;51.534;9.934;2022-12-07T03:53:50;15.98;;;7.97;;
70840;SDS011;58465;51.534;9.934;2022-12-07T03:58:35;14.50;;;8.25;;
70840;SDS011;58465;51.534;9.934;2022-12-07T04:01:01;14.40;;;7.97;;
70840;SDS011;58465;51.534;9.934;2022-12-07T04:03:27;13.48;;;8.07;;
70840;SDS011;58465;51.534;9.934;2022-12-07T04:05:52;13.30;;;7.85;;
70840;SDS011;58465;51.534;9.934;2022-12-07T04:08:18;12.57;;;7.75;;
70840;SDS011;58465;51.534;9.934;2022-12-07T04:10:43;15.32;;;8.50;;
70840;SDS011;58465;51.534;9.934;2022-12-07T04:13:09;13.23;;;7.60;;
70840;SDS011;58465;51.534;9.934;2022-12-07T04:15:34;11.50;;;6.93;;
70840;SDS011;58465;51.534;9.934;2022-12-07T04:17:59;14.13;;;8.10;;
70840;SDS011;58465;51.534;9.934;2022-12-07T04:20:25;14.60;;;8.10;;
70840;SDS011;58465;51.534;9.934;2022-12-07T04:22:50;16.77;;;8.50;;
70840;SDS011;58465;51.534;9.934;2022-12-07T04:25:15;17.52;;;10.13;;
70840;SDS011;58465;51.534;9.934;2022-12-07T04:27:40;17.65;;;9.52;;
70840;SDS011;58465;51.534;9.934;2022-12-07T04:30:06;17.83;;;10.13;;
70840;SDS011;58465;51.534;9.934;2022-12-07T04:32:32;22.98;;;12.75;;
70840;SDS011;58465;51.534;9.934;2022-12-07T04:34:57;17.88;;;9.20;;
70840;SDS011;58465;51.534;9.934;2022-12-07T04:37:22;22.63;;;10.07;;
70840;SDS011;58465;51.534;9.934;2022-12-07T04:39:48;18.00;;;10.18;;
70840;SDS011;58465;51.534;9.934;2022-12-07T04:42:14;17.80;;;10.07;;
70840;SDS011;58465;51.534;9.934;2022-12-07T04:44:39;16.90;;;9.63;;
70840;SDS011;58465;51.534;9.934;2022-12-07T04:47:04;20.05;;;10.15;;
70840;SDS011;58465;51.534;9.934;2022-12-07T04:49:30;19.55;;;11.00;;
70840;SDS011;58465;51.534;9.934;2022-12-07T04:51:55;22.33;;;10.82;;
70840;SDS011;58465;51.534;9.934;2022-12-07T04:54:21;21.05;;;11.85;;
70840;SDS011;58465;51.534;9.934;2022-12-07T04:56:46;17.48;;;9.85;;
70840;SDS011;58465;51.534;9.934;2022-12-07T04:59:12;18.17;;;10.20;;
70840;SDS011;58465;51.534;9.934;2022-12-07T05:01:38;21.73;;;11.35;;
70840;SDS011;58465;51.534;9.934;2022-12-07T05:04:04;20.05;;;11.20;;
70840;SDS011;58465;51.534;9.934;2022-12-07T05:06:29;18.23;;;10.13;;
70840;SDS011;58465;51.534;9.934;2022-12-07T05:08:54;17.75;;;10.63;;
70840;SDS011;58465;51.534;9.934;2022-12-07T05:11:20;16.98;;;9.77;;
70840;SDS011;58465;51.534;9.934;2022-12-07T05:14:04;15.82;;;9.35;;
70840;SDS011;58465;51.534;9.934;2022-12-07T05:16:30;19.63;;;10.18;;
70840;SDS011;58465;51.534;9.934;2022-12-07T05:18:55;16.90;;;9.07;;
70840;SDS011;58465;51.534;9.934;2022-12-07T05:21:21;17.90;;;8.88;;
70840;SDS011;58465;51.534;9.934;2022-12-07T05:23:46;13.85;;;8.48;;
70840;SDS011;58465;51.534;9.934;2022-12-07T05:26:11;18.40;;;9.50;;
70840;SDS011;58465;51.534;9.934;2022-12-07T05:28:37;16.25;;;8.88;;
70840;SDS011;58465;51.534;9.934;2022-12-07T05:31:02;15.38;;;8.68;;
70840;SDS011;58465;51.534;9.934;2022-12-07T05:33:28;23.02;;;9.30;;
70840;SDS011;58465;51.534;9.934;2022-12-07T05:35:53;15.95;;;8.48;;
70840;SDS011;58465;51.534;9.934;2022-12-07T05:38:18;18.60;;;8.75;;
70840;SDS011;58465;51.534;9.934;2022-12-07T05:40:44;18.20;;;8.30;;
70840;SDS011;58465;51.534;9.934;2022-12-07T05:43:09;18.38;;;8.70;;
70840;SDS011;58465;51.534;9.934;2022-12-07T05:45:35;19.10;;;8.85;;
70840;SDS011;58465;51.534;9.934;2022-12-07T05:48:00;18.85;;;10.02;;
70840;SDS011;58465;51.534;9.934;2022-12-07T05:50:26;19.33;;;9.30;;
70840;SDS011;58465;51.534;9.934;2022-12-07T05:52:52;14.35;;;8.43;;
70840;SDS011;58465;51.534;9.934;2022-12-07T05:55:18;15.80;;;7.78;;
70840;SDS011;58465;51.534;9.934;2022-12-07T05:57:43;15.35;;;7.80;;
70840;SDS011;58465;51.534;9.934;2022-12-07T06:00:28;14.52;;;8.02;;
70840;SDS011;58465;51.534;9.934;2022-12-07T06:02:53;15.35;;;7.05;;
70840;SDS011;58465;51.534;9.934;2022-12-07T06:05:19;14.93;;;7.55;;
70840;SDS011;58465;51.534;9.934;2022-12-07T06:07:44;19.60;;;9.13;;
70840;SDS011;58465;51.534;9.934;2022-12-07T06:10:09;18.35;;;7.72;;
70840;SDS011;58465;51.534;9.934;2022-12-07T06:12:35;13.32;;;7.38;;
70840;SDS011;58465;51.534;9.934;2022-12-07T06:15:00;11.75;;;6.75;;
70840;SDS011;58465;51.534;9.934;2022-12-07T06:17:25;10.18;;;6.63;;
70840;SDS011;58465;51.534;9.934;2022-12-07T06:19:51;16.55;;;7.15;;
70840;SDS011;58465;51.534;9.934;2022-12-07T06:22:16;16.65;;;6.40;;
70840;SDS011;58465;51.534;9.934;2022-12-07T06:24:42;12.90;;;6.35;;
70840;SDS011;58465;51.534;9.934;2022-12-07T06:27:08;20.75;;;8.50;;
70840;SDS011;58465;51.534;9.934;2022-12-07T06:29:35;11.93;;;6.80;;
70840;SDS011;58465;51.534;9.934;2022-12-07T06:32:00;14.93;;;6.35;;
70840;SDS011;58465;51.534;9.934;2022-12-07T06:34:26;25.15;;;9.77;;
70840;SDS011;58465;51.534;9.934;2022-12-07T06:36:52;14.48;;;6.05;;
70840;SDS011;58465;51.534;9.934;2022-12-07T06:39:20;15.98;;;6.65;;
70840;SDS011;58465;51.534;9.934;2022-12-07T06:41:46;17.40;;;5.95;;
70840;SDS011;58465;51.534;9.934;2022-12-07T06:44:12;11.40;;;5.95;;
70840;SDS011;58465;51.534;9.934;2022-12-07T06:46:38;14.48;;;6.32;;
70840;SDS011;58465;51.534;9.934;2022-12-07T06:49:04;11.98;;;5.60;;
70840;SDS011;58465;51.534;9.934;2022-12-07T06:51:30;9.60;;;5.97;;
70840;SDS011;58465;51.534;9.934;2022-12-07T06:53:56;17.88;;;5.70;;
70840;SDS011;58465;51.534;9.934;2022-12-07T06:56:21;12.75;;;5.55;;
70840;SDS011;58465;51.534;9.934;2022-12-07T06:58:47;10.15;;;5.32;;
70840;SDS011;58465;51.534;9.934;2022-12-07T07:01:14;14.90;;;5.65;;
70840;SDS011;58465;51.534;9.934;2022-12-07T07:03:41;9.10;;;5.53;;
70840;SDS011;58465;51.534;9.934;2022-12-07T07:06:07;14.27;;;5.53;;
70840;SDS011;58465;51.534;9.934;2022-12-07T07:08:34;14.93;;;6.30;;
70840;SDS011;58465;51.534;9.934;2022-12-07T07:11:00;11.48;;;5.30;;
70840;SDS011;58465;51.534;9.934;2022-12-07T07:13:26;15.05;;;6.60;;
70840;SDS011;58465;51.534;9.934;2022-12-07T07:15:52;12.07;;;6.15;;
70840;SDS011;58465;51.534;9.934;2022-12-07T07:18:17;8.98;;;5.57;;
70840;SDS011;58465;51.534;9.934;2022-12-07T07:20:42;13.73;;;6.45;;
70840;SDS011;58465;51.534;9.934;2022-12-07T07:23:07;12.38;;;6.00;;
70840;SDS011;58465;51.534;9.934;2022-12-07T07:25:33;10.57;;;6.20;;
70840;SDS011;58465;51.534;9.934;2022-12-07T07:27:58;10.90;;;5.20;;
70840;SDS011;58465;51.534;9.934;2022-12-07T07:30:24;12.13;;;5.47;;
70840;SDS011;58465;51.534;9.934;2022-12-07T07:32:49;8.13;;;5.07;;
70840;SDS011;58465;51.534;9.934;2022-12-07T07:35:14;10.35;;;5.03;;
70840;SDS011;58465;51.534;9.934;2022-12-07T07:37:40;10.10;;;5.60;;
70840;SDS011;58465;51.534;9.934;2022-12-07T07:40:06;9.23;;;5.30;;
70840;SDS011;58465;51.534;9.934;2022-12-07T07:42:32;10.75;;;4.50;;
70840;SDS011;58465;51.534;9.934;2022-12-07T07:44:58;11.88;;;5.43;;
70840;SDS011;58465;51.534;9.934;2022-12-07T07:47:23;16.40;;;6.88;;
70840;SDS011;58465;51.534;9.934;2022-12-07T07:49:48;11.90;;;5.45;;
70840;SDS011;58465;51.534;9.934;2022-12-07T07:52:13;11.20;;;5.45;;
70840;SDS011;58465;51.534;9.934;2022-12-07T07:54:39;15.27;;;5.05;;
70840;SDS011;58465;51.534;9.934;2022-12-07T07:57:04;13.88;;;6.35;;
70840;SDS011;58465;51.534;9.934;2022-12-07T07:59:29;12.55;;;5.10;;
70840;SDS011;58465;51.534;9.934;2022-12-07T08:01:54;14.48;;;5.10;;
70840;SDS011;58465;51.534;9.934;2022-12-07T08:04:20;12.23;;;5.53;;
70840;SDS011;58465;51.534;9.934;2022-12-07T08:06:45;13.50;;;5.80;;
70840;SDS011;58465;51.534;9.934;2022-12-07T08:09:10;11.13;;;5.80;;
70840;SDS011;58465;51.534;9.934;2022-12-07T08:11:37;11.75;;;5.38;;
70840;SDS011;58465;51.534;9.934;2022-12-07T08:14:02;10.32;;;5.18;;
70840;SDS011;58465;51.534;9.934;2022-12-07T08:16:28;14.00;;;4.82;;
70840;SDS011;58465;51.534;9.934;2022-12-07T08:18:53;17.73;;;5.85;;
70840;SDS011;58465;51.534;9.934;2022-12-07T08:21:18;11.88;;;5.38;;
70840;SDS011;58465;51.534;9.934;2022-12-07T08:23:44;14.63;;;5.53;;
70840;SDS011;58465;51.534;9.934;2022-12-07T08:26:11;11.43;;;5.13;;
70840;SDS011;58465;51.534;9.934;2022-12-07T08:28:38;9.45;;;4.10;;
70840;SDS011;58465;51.534;9.934;2022-12-07T08:31:08;10.70;;;4.45;;
70840;SDS011;58465;51.534;9.934;2022-12-07T08:33:36;9.23;;;5.15;;
70840;SDS011;58465;51.534;9.934;2022-12-07T08:36:03;13.50;;;6.45;;
70840;SDS011;58465;51.534;9.934;2022-12-07T08:38:30;10.15;;;4.70;;
70840;SDS011;58465;51.534;9.934;2022-12-07T08:40:56;12.73;;;6.45;;
70840;SDS011;58465;51.534;9.934;2022-12-07T08:43:22;14.85;;;6.15;;
70840;SDS011;58465;51.534;9.934;2022-12-07T08:45:47;13.80;;;5.22;;
70840;SDS011;58465;51.534;9.934;2022-12-07T08:48:16;9.90;;;6.38;;
70840;SDS011;58465;51.534;9.934;2022-12-07T08:50:46;12.80;;;5.93;;
70840;SDS011;58465;51.534;9.934;2022-12-07T08:53:12;15.85;;;9.20;;
70840;SDS011;58465;51.534;9.934;2022-12-07T08:55:37;11.98;;;4.82;;
70840;SDS011;58465;51.534;9.934;2022-12-07T08:58:03;12.40;;;6.25;;
70840;SDS011;58465;51.534;9.934;2022-12-07T09:00:28;14.40;;;4.90;;
70840;SDS011;58465;51.534;9.934;2022-12-07T09:02:54;13.57;;;6.68;;
70840;SDS011;58465;51.534;9.934;2022-12-07T09:05:19;14.65;;;8.27;;
70840;SDS011;58465;51.534;9.934;2022-12-07T09:07:45;15.27;;;10.40;;
70840;SDS011;58465;51.534;9.934;2022-12-07T09:10:16;17.17;;;8.77;;
70840;SDS011;58465;51.534;9.934;2022-12-07T09:12:42;11.85;;;5.18;;
70840;SDS011;58465;51.534;9.934;2022-12-07T09:15:07;14.73;;;7.90;;
70840;SDS011;58465;51.534;9.934;2022-12-07T09:17:33;11.20;;;7.78;;
70840;SDS011;58465;51.534;9.934;2022-12-07T09:19:59;10.30;;;5.00;;
70840;SDS011;58465;51.534;9.934;2022-12-07T09:22:28;11.85;;;6.10;;
70840;SDS011;58465;51.534;9.934;2022-12-07T09:24:55;16.20;;;8.80;;
70840;SDS011;58465;51.534;9.934;2022-12-07T09:27:21;9.65;;;5.35;;
70840;SDS011;58465;51.534;9.934;2022-12-07T09:29:46;7.82;;;4.32;;
70840;SDS011;58465;51.534;9.934;2022-12-07T09:32:11;9.15;;;5.18;;
70840;SDS011;58465;51.534;9.934;2022-12-07T09:34:38;12.77;;;7.43;;
70840;SDS011;58465;51.534;9.934;2022-12-07T09:37:03;9.68;;;5.07;;
70840;SDS011;58465;51.534;9.934;2022-12-07T09:39:28;11.82;;;6.45;;
70840;SDS011;58465;51.534;9.934;2022-12-07T09:41:54;10.07;;;4.95;;
70840;SDS011;58465;51.534;9.934;2022-12-07T09:44:24;9.30;;;4.80;;
70840;SDS011;58465;51.534;9.934;2022-12-07T09:46:50;11.20;;;5.22;;
70840;SDS011;58465;51.534;9.934;2022-12-07T09:49:18;13.45;;;4.78;;
70840;SDS011;58465;51.534;9.934;2022-12-07T09:51:45;8.38;;;4.10;;
70840;SDS011;58465;51.534;9.934;2022-12-07T09:54:12;13.82;;;6.57;;
70840;SDS011;58465;51.534;9.934;2022-12-07T09:56:39;14.70;;;5.13;;
70840;SDS011;58465;51.534;9.934;2022-12-07T09:59:04;8.23;;;4.32;;
70840;SDS011;58465;51.534;9.934;2022-12-07T10:01:30;9.15;;;4.30;;
70840;SDS011;58465;51.534;9.934;2022-12-07T10:04:05;9.43;;;3.83;;
70840;SDS011;58465;51.534;9.934;2022-12-07T10:06:54;9.35;;;4.60;;
70840;SDS011;58465;51.534;9.934;2022-12-07T10:09:20;11.23;;;4.28;;
70840;SDS011;58465;51.534;9.934;2022-12-07T10:14:24;9.15;;;4.30;;
70840;SDS011;58465;51.534;9.934;2022-12-07T10:16:53;11.00;;;3.55;;
70840;SDS011;58465;51.534;9.934;2022-12-07T10:19:26;8.43;;;4.20;;
70840;SDS011;58465;51.534;9.934;2022-12-07T10:22:01;10.75;;;4.10;;
70840;SDS011;58465;51.534;9.934;2022-12-07T10:24:38;11.88;;;3.60;;
70840;SDS011;58465;51.534;9.934;2022-12-07T10:27:16;8.45;;;3.70;;
70840;SDS011;58465;51.534;9.934;2022-12-07T10:29:47;8.73;;;3.50;;
70840;SDS011;58465;51.534;9.934;2022-12-07T10:34:40;8.83;;;5.27;;
70840;SDS011;58465;51.534;9.934;2022-12-07T10:40:10;6.30;;;3.80;;
70840;SDS011;58465;51.534;9.934;2022-12-07T11:04:20;6.30;;;3.03;;
70840;SDS011;58465;51.534;9.934;2022-12-07T11:06:59;6.30;;;2.70;;
70840;SDS011;58465;51.534;9.934;2022-12-07T11:14:56;11.13;;;5.30;;
70840;SDS011;58465;51.534;9.934;2022-12-07T11:17:25;12.55;;;4.07;;
70840;SDS011;58465;51.534;9.934;2022-12-07T11:20:26;8.45;;;4.03;;
70840;SDS011;58465;51.534;9.934;2022-12-07T11:22:57;8.52;;;2.67;;
70840;SDS011;58465;51.534;9.934;2022-12-07T11:33:45;5.03;;;2.65;;
70840;SDS011;58465;51.534;9.934;2022-12-07T11:36:17;9.48;;;2.97;;
70840;SDS011;58465;51.534;9.934;2022-12-07T11:38:49;12.35;;;5.05;;
70840;SDS011;58465;51.534;9.934;2022-12-07T11:41:37;7.55;;;3.80;;
70840;SDS011;58465;51.534;9.934;2022-12-07T11:44:15;9.15;;;3.42;;
70840;SDS011;58465;51.534;9.934;2022-12-07T11:46:53;9.73;;;3.55;;
70840;SDS011;58465;51.534;9.934;2022-12-07T11:52:22;6.93;;;3.08;;
70840;SDS011;58465;51.534;9.934;2022-12-07T11:54:52;6.88;;;2.95;;
70840;SDS011;58465;51.534;9.934;2022-12-07T11:57:30;9.38;;;3.03;;
70840;SDS011;58465;51.534;9.934;2022-12-07T12:00:04;6.43;;;2.53;;
70840;SDS011;58465;51.534;9.934;2022-12-07T12:02:41;7.28;;;2.72;;
70840;SDS011;58465;51.534;9.934;2022-12-07T12:05:15;12.00;;;2.83;;
70840;SDS011;58465;51.534;9.934;2022-12-07T12:07:43;9.45;;;3.47;;
70840;SDS011;58465;51.534;9.934;2022-12-07T12:13:15;5.65;;;2.40;;
70840;SDS011;58465;51.534;9.934;2022-12-07T12:18:56;5.15;;;2.70;;
70840;SDS011;58465;51.534;9.934;2022-12-07T12:21:47;8.63;;;2.47;;
70840;SDS011;58465;51.534;9.934;2022-12-07T12:24:19;6.05;;;2.63;;
70840;SDS011;58465;51.534;9.934;2022-12-07T12:26:51;7.10;;;2.40;;
70840;SDS011;58465;51.534;9.934;2022-12-07T12:29:23;6.78;;;3.17;;
70840;SDS011;58465;51.534;9.934;2022-12-07T12:32:16;8.63;;;2.55;;
70840;SDS011;58465;51.534;9.934;2022-12-07T12:42:53;4.85;;;2.20;;
70840;SDS011;58465;51.534;9.934;2022-12-07T12:45:24;6.28;;;2.42;;
70840;SDS011;58465;51.534;9.934;2022-12-07T12:48:03;5.45;;;2.95;;
70840;SDS011;58465;51.534;9.934;2022-12-07T12:50:47;6.72;;;2.83;;
70840;SDS011;58465;51.534;9.934;2022-12-07T12:53:20;6.95;;;3.22;;
70840;SDS011;58465;51.534;9.934;2022-12-07T12:55:54;6.95;;;2.80;;
70840;SDS011;58465;51.534;9.934;2022-12-07T13:01:49;5.50;;;2.28;;
70840;SDS011;58465;51.534;9.934;2022-12-07T13:04:24;8.38;;;2.97;;
70840;SDS011;58465;51.534;9.934;2022-12-07T13:06:53;9.98;;;2.55;;
70840;SDS011;58465;51.534;9.934;2022-12-07T13:09:23;4.97;;;2.55;;
70840;SDS011;58465;51.534;9.934;2022-12-07T13:11:56;13.25;;;3.85;;
70840;SDS011;58465;51.534;9.934;2022-12-07T13:19:59;16.15;;;5.25;;
70840;SDS011;58465;51.534;9.934;2022-12-07T13:24:55;8.93;;;3.45;;
70840;SDS011;58465;51.534;9.934;2022-12-07T13:27:28;5.75;;;2.42;;
70840;SDS011;58465;51.534;9.934;2022-12-07T13:29:56;12.88;;;3.13;;
70840;SDS011;58465;51.534;9.934;2022-12-07T13:32:23;5.15;;;3.10;;
70840;SDS011;58465;51.534;9.934;2022-12-07T13:34:50;6.47;;;3.15;;
70840;SDS011;58465;51.534;9.934;2022-12-07T13:37:28;9.52;;;3.70;;
70840;SDS011;58465;51.534;9.934;2022-12-07T13:39:58;9.80;;;5.00;;
70840;SDS011;58465;51.534;9.934;2022-12-07T13:42:33;8.52;;;2.97;;
70840;SDS011;58465;51.534;9.934;2022-12-07T13:45:13;11.75;;;5.20;;
70840;SDS011;58465;51.534;9.934;2022-12-07T13:47:48;8.13;;;2.72;;
70840;SDS011;58465;51.534;9.934;2022-12-07T13:50:28;10.32;;;3.50;;
70840;SDS011;58465;51.534;9.934;2022-12-07T13:52:56;8.75;;;3.13;;
70840;SDS011;58465;51.534;9.934;2022-12-07T13:55:23;14.32;;;4.90;;
70840;SDS011;58465;51.534;9.934;2022-12-07T13:57:50;8.85;;;4.40;;
70840;SDS011;58465;51.534;9.934;2022-12-07T14:00:24;8.98;;;3.80;;
70840;SDS011;58465;51.534;9.934;2022-12-07T14:05:34;8.80;;;2.67;;
70840;SDS011;58465;51.534;9.934;2022-12-07T14:08:06;11.98;;;3.03;;
70840;SDS011;58465;51.534;9.934;2022-12-07T14:13:56;12.48;;;3.90;;
70840;SDS011;58465;51.534;9.934;2022-12-07T14:16:17;11.68;;;3.20;;
70840;SDS011;58465;51.534;9.934;2022-12-07T14:18:49;5.32;;;2.50;;
70840;SDS011;58465;51.534;9.934;2022-12-07T14:23:44;5.80;;;2.20;;
70840;SDS011;58465;51.534;9.934;2022-12-07T14:26:20;9.75;;;3.22;;
70840;SDS011;58465;51.534;9.934;2022-12-07T14:28:46;9.95;;;3.58;;
70840;SDS011;58465;51.534;9.934;2022-12-07T14:31:16;10.30;;;3.00;;
70840;SDS011;58465;51.534;9.934;2022-12-07T14:33:43;7.35;;;3.20;;
70840;SDS011;58465;51.534;9.934;2022-12-07T14:36:09;6.13;;;2.75;;
70840;SDS011;58465;51.534;9.934;2022-12-07T14:38:38;9.85;;;2.88;;
70840;SDS011;58465;51.534;9.934;2022-12-07T14:41:04;9.20;;;2.75;;
70840;SDS011;58465;51.534;9.934;2022-12-07T14:43:53;13.25;;;3.50;;
70840;SDS011;58465;51.534;9.934;2022-12-07T14:46:19;6.07;;;2.55;;
70840;SDS011;58465;51.534;9.934;2022-12-07T14:48:44;10.63;;;3.30;;
70840;SDS011;58465;51.534;9.934;2022-12-07T14:51:10;8.38;;;2.97;;
70840;SDS011;58465;51.534;9.934;2022-12-07T14:53:40;4.13;;;2.22;;
70840;SDS011;58465;51.534;9.934;2022-12-07T14:56:11;7.88;;;3.20;;
70840;SDS011;58465;51.534;9.934;2022-12-07T14:58:36;7.32;;;3.70;;
70840;SDS011;58465;51.534;9.934;2022-12-07T15:01:02;17.30;;;6.57;;
70840;SDS011;58465;51.534;9.934;2022-12-07T15:03:28;11.73;;;4.97;;
70840;SDS011;58465;51.534;9.934;2022-12-07T15:05:53;12.95;;;7.18;;
70840;SDS011;58465;51.534;9.934;2022-12-07T15:08:18;9.65;;;4.03;;
70840;SDS011;58465;51.534;9.934;2022-12-07T15:10:44;7.30;;;3.05;;
70840;SDS011;58465;51.534;9.934;2022-12-07T15:13:09;5.65;;;2.90;;
70840;SDS011;58465;51.534;9.934;2022-12-07T15:15:53;6.63;;;3.25;;
70840;SDS011;58465;51.534;9.934;2022-12-07T15:18:20;14.02;;;2.60;;
70840;SDS011;58465;51.534;9.934;2022-12-07T15:20:46;9.57;;;3.67;;
70840;SDS011;58465;51.534;9.934;2022-12-07T15:23:12;10.85;;;2.95;;
70840;SDS011;58465;51.534;9.934;2022-12-07T15:25:41;18.17;;;4.88;;
70840;SDS011;58465;51.534;9.934;2022-12-07T15:28:08;12.35;;;3.40;;
70840;SDS011;58465;51.534;9.934;2022-12-07T15:30:36;8.15;;;2.83;;
70840;SDS011;58465;51.534;9.934;2022-12-07T15:33:02;12.23;;;3.67;;
70840;SDS011;58465;51.534;9.934;2022-12-07T15:35:27;13.65;;;3.85;;
70840;SDS011;58465;51.534;9.934;2022-12-07T15:37:53;8.90;;;2.80;;
70840;SDS011;58465;51.534;9.934;2022-12-07T15:40:18;11.52;;;3.10;;
70840;SDS011;58465;51.534;9.934;2022-12-07T15:42:43;10.07;;;2.60;;
70840;SDS011;58465;51.534;9.934;2022-12-07T15:45:09;6.97;;;2.90;;
70840;SDS011;58465;51.534;9.934;2022-12-07T15:47:35;7.45;;;3.05;;
70840;SDS011;58465;51.534;9.934;2022-12-07T15:50:10;16.60;;;3.55;;
70840;SDS011;58465;51.534;9.934;2022-12-07T15:52:37;7.82;;;3.53;;
70840;SDS011;58465;51.534;9.934;2022-12-07T15:55:04;7.15;;;3.08;;
70840;SDS011;58465;51.534;9.934;2022-12-07T15:57:30;11.38;;;3.80;;
70840;SDS011;58465;51.534;9.934;2022-12-07T15:59:56;7.15;;;3.53;;
70840;SDS011;58465;51.534;9.934;2022-12-07T16:02:21;11.38;;;3.90;;
70840;SDS011;58465;51.534;9.934;2022-12-07T16:04:48;11.75;;;5.85;;
70840;SDS011;58465;51.534;9.934;2022-12-07T16:07:14;9.90;;;4.82;;
70840;SDS011;58465;51.534;9.934;2022-12-07T16:09:40;8.23;;;3.38;;
70840;SDS011;58465;51.534;9.934;2022-12-07T16:12:07;13.13;;;3.20;;
70840;SDS011;58465;51.534;9.934;2022-12-07T16:14:32;7.88;;;3.70;;
70840;SDS011;58465;51.534;9.934;2022-12-07T16:16:58;9.60;;;4.22;;
70840;SDS011;58465;51.534;9.934;2022-12-07T16:19:24;9.23;;;4.00;;
70840;SDS011;58465;51.534;9.934;2022-12-07T16:21:49;9.30;;;3.20;;
70840;SDS011;58465;51.534;9.934;2022-12-07T16:24:14;10.77;;;4.20;;
70840;SDS011;58465;51.534;9.934;2022-12-07T16:26:40;15.77;;;6.38;;
70840;SDS011;58465;51.534;9.934;2022-12-07T16:29:05;15.20;;;5.53;;
70840;SDS011;58465;51.534;9.934;2022-12-07T16:31:30;12.40;;;4.10;;
70840;SDS011;58465;51.534;9.934;2022-12-07T16:33:57;8.05;;;4.03;;
70840;SDS011;58465;51.534;9.934;2022-12-07T16:36:23;8.85;;;4.63;;
70840;SDS011;58465;51.534;9.934;2022-12-07T16:38:50;11.45;;;4.50;;
70840;SDS011;58465;51.534;9.934;2022-12-07T16:41:16;8.40;;;4.22;;
70840;SDS011;58465;51.534;9.934;2022-12-07T16:43:41;11.40;;;4.47;;